Anchor Point, Alaska
Current Conditions -  °F | °C
As of 3:15 PM on Monday 22 Dec 2014 (Local Time) from PAHO Reporting Station
Overcast Overcast  
Wind Chill:   Ceiling: 800
Heat Index:   Visibility: 7mi
Dew Point: -1°   Wind: 0mph
Humidity: 89%   Direction: NA
Pressure: 29.75"   Gusts: NA
Location:  59.77°N, 151.82°W
Report Text: PAHO 230015Z 00000KT 7SM OVC008 01/M01 A2975 RMK AO2 SNE05 P0000 T00111006
Loading
Personal Weather Stations






























Interactive Weather Map New forecast layout! Learn more

10-Day Weather Forecast

Advertisements
Track Severe Weather on mobile